Jomi — C6VK4 — position and weather

sailwx.info

Track history (hours):
 
Tides and Currents Weather Stations Pressure Air Temp Water Temp Dewpoint Dewpoint Depression Visibility Wind Speed Wind Dir Waves Ship Positions

Jomi

Last reported at 2017-Dec-15 19:30 UTC. Time now 2017-Dec-15 19:59 UTC.
Position N 66°16' E 011°54'.

Length 88 m; draft 6.2 m.

Type: Other ship. MMSI: 309701000.

Date/timePositionNaut miles runAvg speedWind from/ knotsBaromVisibWave heightAir tempDewpointWater temp
2017-Dec-15 19:30N 66°16' E 011°54'5 9.6
2017-Dec-15 19:00N 66°17' E 012°05'5 9.5
2017-Dec-15 18:30N 66°17' E 012°17'5 9.9
2017-Dec-15 18:00N 66°15' E 012°28'5 9.2
2017-Dec-15 17:30N 66°16' E 012°39'5 9.7
2017-Dec-15 17:00N 66°19' E 012°49'5 9.5
2017-Dec-15 16:30N 66°22' E 012°58'510.0
2017-Dec-15 16:00N 66°27' E 012°59'5 9.7
2017-Dec-15 15:30N 66°32' E 012°58'4 8.7
2017-Dec-15 15:00N 66°36' E 013°04'5 9.6
2017-Dec-15 14:30N 66°40' E 013°08'510.1
2017-Dec-15 14:00N 66°45' E 013°13'5 9.9
2017-Dec-15 13:30N 66°48' E 013°23'510.1
2017-Dec-15 13:00N 66°49' E 013°35'510.0
2017-Dec-15 12:30N 66°49' E 013°48'3 0.2
2017-Dec-14 15:31N 66°49' E 013°56'0 0.1
2017-Dec-14 15:00N 66°49' E 013°57'3 6.6
2017-Dec-14 14:30N 66°48' E 013°48'510.4
2017-Dec-14 14:00N 66°49' E 013°35'510.6
2017-Dec-14 13:30N 66°48' E 013°22'510.2
2017-Dec-14 13:00N 66°45' E 013°12'510.7
2017-Dec-14 12:29N 66°39' E 013°07'610.7
2017-Dec-14 11:58N 66°34' E 013°05'4 9.1
2017-Dec-14 11:30N 66°31' E 012°58'611.0
2017-Dec-14 10:59N 66°25' E 012°59'510.3
2017-Dec-14 10:30N 66°20' E 012°54'510.2
2017-Dec-14 10:00N 66°18' E 012°43'510.7
2017-Dec-14 09:30N 66°15' E 012°31'4 8.8
2017-Dec-14 09:00N 66°16' E 012°20'510.6
2017-Dec-14 08:30N 66°17' E 012°07'5 9.6
2017-Dec-14 08:00N 66°18' E 011°56'13 2.4
2017-Dec-14 02:39N 66°28' E 011°35'  
2017-Dec-11 04:47N 66°40' W 017°03'2 8.1
2017-Dec-11 04:29N 66°39' W 017°09'8 7.7
2017-Dec-11 03:26N 66°38' W 017°29'4 8.1
2017-Dec-11 02:59N 66°38' W 017°38'4 7.8
2017-Dec-11 02:28N 66°37' W 017°49'4 8.1
2017-Dec-11 02:00N 66°37' W 017°58'4 7.8
2017-Dec-11 01:30N 66°37' W 018°08'4 7.6
2017-Dec-11 01:00N 66°36' W 018°17'4 7.4
2017-Dec-11 00:30N 66°35' W 018°26'4 7.5
2017-Dec-11 00:00N 66°35' W 018°36'4 7.5
2017-Dec-10 23:30N 66°34' W 018°45'4 7.4
2017-Dec-10 23:00N 66°33' W 018°54'4 7.4
2017-Dec-10 22:30N 66°32' W 019°03'4 7.2
2017-Dec-10 22:00N 66°31' W 019°11'4 7.4
2017-Dec-10 21:29N 66°30' W 019°21'4 7.3
2017-Dec-10 20:59N 66°29' W 019°30'4 7.1
2017-Dec-10 20:27N 66°28' W 019°39'3 7.1
2017-Dec-10 19:58N 66°28' W 019°47'  
Track history (hours):
 
Tides and Currents Weather Stations Pressure Air Temp Water Temp Dewpoint Dewpoint Depression Visibility Wind Speed Wind Dir Waves Ship Positions

Jomi

Last reported at 2017-Dec-15 19:30 UTC. Time now 2017-Dec-15 19:59 UTC.
Position N 66°16' E 011°54'.

Length 88 m; draft 6.2 m.

Type: Other ship. MMSI: 309701000.

Date/timePositionNaut miles runAvg speedWind from/ knotsBaromVisibWave heightAir tempDewpointWater temp
2017-Dec-15 19:30N 66°16' E 011°54'5 9.6
2017-Dec-15 19:00N 66°17' E 012°05'5 9.5
2017-Dec-15 18:30N 66°17' E 012°17'5 9.9
2017-Dec-15 18:00N 66°15' E 012°28'5 9.2
2017-Dec-15 17:30N 66°16' E 012°39'5 9.7
2017-Dec-15 17:00N 66°19' E 012°49'5 9.5
2017-Dec-15 16:30N 66°22' E 012°58'510.0
2017-Dec-15 16:00N 66°27' E 012°59'5 9.7
2017-Dec-15 15:30N 66°32' E 012°58'4 8.7
2017-Dec-15 15:00N 66°36' E 013°04'5 9.6
2017-Dec-15 14:30N 66°40' E 013°08'510.1
2017-Dec-15 14:00N 66°45' E 013°13'5 9.9
2017-Dec-15 13:30N 66°48' E 013°23'510.1
2017-Dec-15 13:00N 66°49' E 013°35'510.0
2017-Dec-15 12:30N 66°49' E 013°48'3 0.2
2017-Dec-14 15:31N 66°49' E 013°56'0 0.1
2017-Dec-14 15:00N 66°49' E 013°57'3 6.6
2017-Dec-14 14:30N 66°48' E 013°48'510.4
2017-Dec-14 14:00N 66°49' E 013°35'510.6
2017-Dec-14 13:30N 66°48' E 013°22'510.2
2017-Dec-14 13:00N 66°45' E 013°12'510.7
2017-Dec-14 12:29N 66°39' E 013°07'610.7
2017-Dec-14 11:58N 66°34' E 013°05'4 9.1
2017-Dec-14 11:30N 66°31' E 012°58'611.0
2017-Dec-14 10:59N 66°25' E 012°59'510.3
2017-Dec-14 10:30N 66°20' E 012°54'510.2
2017-Dec-14 10:00N 66°18' E 012°43'510.7
2017-Dec-14 09:30N 66°15' E 012°31'4 8.8
2017-Dec-14 09:00N 66°16' E 012°20'510.6
2017-Dec-14 08:30N 66°17' E 012°07'5 9.6
2017-Dec-14 08:00N 66°18' E 011°56'13 2.4
2017-Dec-14 02:39N 66°28' E 011°35'  
2017-Dec-11 04:47N 66°40' W 017°03'2 8.1
2017-Dec-11 04:29N 66°39' W 017°09'8 7.7
2017-Dec-11 03:26N 66°38' W 017°29'4 8.1
2017-Dec-11 02:59N 66°38' W 017°38'4 7.8
2017-Dec-11 02:28N 66°37' W 017°49'4 8.1
2017-Dec-11 02:00N 66°37' W 017°58'4 7.8
2017-Dec-11 01:30N 66°37' W 018°08'4 7.6
2017-Dec-11 01:00N 66°36' W 018°17'4 7.4
2017-Dec-11 00:30N 66°35' W 018°26'4 7.5
2017-Dec-11 00:00N 66°35' W 018°36'4 7.5
2017-Dec-10 23:30N 66°34' W 018°45'4 7.4
2017-Dec-10 23:00N 66°33' W 018°54'4 7.4
2017-Dec-10 22:30N 66°32' W 019°03'4 7.2
2017-Dec-10 22:00N 66°31' W 019°11'4 7.4
2017-Dec-10 21:29N 66°30' W 019°21'4 7.3
2017-Dec-10 20:59N 66°29' W 019°30'4 7.1
2017-Dec-10 20:27N 66°28' W 019°39'3 7.1
2017-Dec-10 19:58N 66°28' W 019°47'  

Dump ship's entire track history